sensor_id;sensor_type;location;lat;lon;timestamp;P1;durP1;ratioP1;P2;durP2;ratioP2
34836;SDS011;21053;50.848;4.652;2022-12-16T00:01:40;121.70;;;45.25;;
34836;SDS011;21053;50.848;4.652;2022-12-16T00:04:08;112.75;;;44.53;;
34836;SDS011;21053;50.848;4.652;2022-12-16T00:06:34;121.82;;;45.65;;
34836;SDS011;21053;50.848;4.652;2022-12-16T00:09:00;109.50;;;43.97;;
34836;SDS011;21053;50.848;4.652;2022-12-16T00:13:56;116.57;;;46.65;;
34836;SDS011;21053;50.848;4.652;2022-12-16T00:16:23;106.57;;;43.70;;
34836;SDS011;21053;50.848;4.652;2022-12-16T00:18:51;113.47;;;46.28;;
34836;SDS011;21053;50.848;4.652;2022-12-16T00:21:18;118.07;;;45.97;;
34836;SDS011;21053;50.848;4.652;2022-12-16T00:23:46;118.22;;;45.83;;
34836;SDS011;21053;50.848;4.652;2022-12-16T00:26:11;111.82;;;45.72;;
34836;SDS011;21053;50.848;4.652;2022-12-16T00:28:38;114.70;;;46.22;;
34836;SDS011;21053;50.848;4.652;2022-12-16T00:31:04;116.45;;;45.83;;
34836;SDS011;21053;50.848;4.652;2022-12-16T00:33:31;113.22;;;45.05;;
34836;SDS011;21053;50.848;4.652;2022-12-16T00:36:00;111.60;;;45.38;;
34836;SDS011;21053;50.848;4.652;2022-12-16T00:38:26;109.95;;;45.80;;
34836;SDS011;21053;50.848;4.652;2022-12-16T00:40:54;115.25;;;45.40;;
34836;SDS011;21053;50.848;4.652;2022-12-16T00:43:19;110.35;;;44.13;;
34836;SDS011;21053;50.848;4.652;2022-12-16T00:45:46;112.10;;;44.25;;
34836;SDS011;21053;50.848;4.652;2022-12-16T00:48:12;115.63;;;46.10;;
34836;SDS011;21053;50.848;4.652;2022-12-16T00:50:38;114.47;;;45.85;;
34836;SDS011;21053;50.848;4.652;2022-12-16T00:53:04;110.88;;;45.45;;
34836;SDS011;21053;50.848;4.652;2022-12-16T00:55:32;108.63;;;46.28;;
34836;SDS011;21053;50.848;4.652;2022-12-16T00:57:59;121.72;;;46.33;;
34836;SDS011;21053;50.848;4.652;2022-12-16T01:00:28;107.30;;;46.50;;
34836;SDS011;21053;50.848;4.652;2022-12-16T01:02:55;106.07;;;43.58;;
34836;SDS011;21053;50.848;4.652;2022-12-16T01:08:36;120.15;;;45.17;;
34836;SDS011;21053;50.848;4.652;2022-12-16T01:11:04;110.65;;;43.88;;
34836;SDS011;21053;50.848;4.652;2022-12-16T01:13:30;114.65;;;46.17;;
34836;SDS011;21053;50.848;4.652;2022-12-16T01:15:59;112.72;;;44.72;;
34836;SDS011;21053;50.848;4.652;2022-12-16T01:18:26;107.38;;;44.65;;
34836;SDS011;21053;50.848;4.652;2022-12-16T01:21:00;125.50;;;46.80;;
34836;SDS011;21053;50.848;4.652;2022-12-16T01:23:31;116.93;;;45.53;;
34836;SDS011;21053;50.848;4.652;2022-12-16T01:25:59;114.50;;;44.83;;
34836;SDS011;21053;50.848;4.652;2022-12-16T01:28:26;114.28;;;46.70;;
34836;SDS011;21053;50.848;4.652;2022-12-16T01:30:57;106.97;;;44.58;;
34836;SDS011;21053;50.848;4.652;2022-12-16T01:33:27;107.95;;;43.63;;
34836;SDS011;21053;50.848;4.652;2022-12-16T01:36:12;113.05;;;45.65;;
34836;SDS011;21053;50.848;4.652;2022-12-16T01:38:41;107.57;;;44.28;;
34836;SDS011;21053;50.848;4.652;2022-12-16T01:41:11;106.75;;;43.45;;
34836;SDS011;21053;50.848;4.652;2022-12-16T01:43:39;105.55;;;45.03;;
34836;SDS011;21053;50.848;4.652;2022-12-16T01:48:42;107.15;;;42.38;;
34836;SDS011;21053;50.848;4.652;2022-12-16T01:51:39;117.10;;;47.00;;
34836;SDS011;21053;50.848;4.652;2022-12-16T01:54:09;110.35;;;45.70;;
34836;SDS011;21053;50.848;4.652;2022-12-16T01:59:36;109.53;;;43.22;;
34836;SDS011;21053;50.848;4.652;2022-12-16T02:05:27;119.47;;;43.40;;
34836;SDS011;21053;50.848;4.652;2022-12-16T02:16:25;102.78;;;41.85;;
34836;SDS011;21053;50.848;4.652;2022-12-16T02:29:31;114.57;;;42.38;;
34836;SDS011;21053;50.848;4.652;2022-12-16T02:32:09;96.55;;;41.10;;
34836;SDS011;21053;50.848;4.652;2022-12-16T02:40:23;101.68;;;42.50;;
34836;SDS011;21053;50.848;4.652;2022-12-16T02:42:59;97.45;;;42.72;;
34836;SDS011;21053;50.848;4.652;2022-12-16T02:45:41;107.47;;;44.45;;
34836;SDS011;21053;50.848;4.652;2022-12-16T02:48:09;104.93;;;42.00;;
34836;SDS011;21053;50.848;4.652;2022-12-16T02:50:41;97.53;;;43.30;;
34836;SDS011;21053;50.848;4.652;2022-12-16T02:53:13;92.85;;;40.00;;
34836;SDS011;21053;50.848;4.652;2022-12-16T03:03:39;100.22;;;41.17;;
34836;SDS011;21053;50.848;4.652;2022-12-16T03:06:22;96.90;;;39.67;;
34836;SDS011;21053;50.848;4.652;2022-12-16T03:08:52;96.35;;;39.08;;
34836;SDS011;21053;50.848;4.652;2022-12-16T03:11:24;96.35;;;41.13;;
34836;SDS011;21053;50.848;4.652;2022-12-16T03:13:54;97.07;;;40.10;;
34836;SDS011;21053;50.848;4.652;2022-12-16T03:16:25;93.68;;;40.80;;
34836;SDS011;21053;50.848;4.652;2022-12-16T03:18:58;98.80;;;40.47;;
34836;SDS011;21053;50.848;4.652;2022-12-16T03:21:28;93.75;;;39.63;;
34836;SDS011;21053;50.848;4.652;2022-12-16T03:24:00;98.45;;;41.05;;
34836;SDS011;21053;50.848;4.652;2022-12-16T03:26:42;111.35;;;41.15;;
34836;SDS011;21053;50.848;4.652;2022-12-16T03:29:35;104.90;;;40.85;;
34836;SDS011;21053;50.848;4.652;2022-12-16T03:32:14;92.22;;;40.95;;
34836;SDS011;21053;50.848;4.652;2022-12-16T03:34:51;99.97;;;40.88;;
34836;SDS011;21053;50.848;4.652;2022-12-16T03:37:26;94.10;;;41.60;;
34836;SDS011;21053;50.848;4.652;2022-12-16T03:39:59;98.45;;;41.65;;
34836;SDS011;21053;50.848;4.652;2022-12-16T03:44:59;86.78;;;40.25;;
34836;SDS011;21053;50.848;4.652;2022-12-16T03:47:27;87.03;;;39.17;;
34836;SDS011;21053;50.848;4.652;2022-12-16T03:49:54;93.95;;;41.03;;
34836;SDS011;21053;50.848;4.652;2022-12-16T03:52:21;99.35;;;41.63;;
34836;SDS011;21053;50.848;4.652;2022-12-16T03:55:27;105.13;;;43.90;;
34836;SDS011;21053;50.848;4.652;2022-12-16T03:57:56;100.38;;;41.70;;
34836;SDS011;21053;50.848;4.652;2022-12-16T04:00:23;89.72;;;40.28;;
34836;SDS011;21053;50.848;4.652;2022-12-16T04:02:51;95.28;;;39.83;;
34836;SDS011;21053;50.848;4.652;2022-12-16T04:05:17;105.07;;;41.03;;
34836;SDS011;21053;50.848;4.652;2022-12-16T04:07:45;87.97;;;38.72;;
34836;SDS011;21053;50.848;4.652;2022-12-16T04:10:13;92.72;;;41.13;;
34836;SDS011;21053;50.848;4.652;2022-12-16T04:12:40;104.68;;;42.47;;
34836;SDS011;21053;50.848;4.652;2022-12-16T04:15:26;105.33;;;43.63;;
34836;SDS011;21053;50.848;4.652;2022-12-16T04:18:16;102.20;;;42.83;;
34836;SDS011;21053;50.848;4.652;2022-12-16T04:21:02;93.47;;;40.97;;
34836;SDS011;21053;50.848;4.652;2022-12-16T04:23:48;102.70;;;42.15;;
34836;SDS011;21053;50.848;4.652;2022-12-16T04:29:24;90.13;;;41.20;;
34836;SDS011;21053;50.848;4.652;2022-12-16T04:34:19;97.63;;;42.40;;
34836;SDS011;21053;50.848;4.652;2022-12-16T04:36:53;94.85;;;41.42;;
34836;SDS011;21053;50.848;4.652;2022-12-16T04:39:43;102.45;;;41.78;;
34836;SDS011;21053;50.848;4.652;2022-12-16T04:42:28;102.07;;;40.25;;
34836;SDS011;21053;50.848;4.652;2022-12-16T04:45:13;97.28;;;39.72;;
34836;SDS011;21053;50.848;4.652;2022-12-16T04:47:58;114.88;;;35.65;;
34836;SDS011;21053;50.848;4.652;2022-12-16T04:50:45;103.10;;;35.63;;
34836;SDS011;21053;50.848;4.652;2022-12-16T04:53:34;107.85;;;36.03;;
34836;SDS011;21053;50.848;4.652;2022-12-16T04:56:21;112.35;;;37.97;;
34836;SDS011;21053;50.848;4.652;2022-12-16T04:59:08;109.25;;;36.45;;
34836;SDS011;21053;50.848;4.652;2022-12-16T05:01:52;111.32;;;36.42;;
34836;SDS011;21053;50.848;4.652;2022-12-16T05:04:38;115.45;;;37.35;;
34836;SDS011;21053;50.848;4.652;2022-12-16T05:07:24;109.53;;;38.30;;
34836;SDS011;21053;50.848;4.652;2022-12-16T05:13:03;111.88;;;37.35;;
34836;SDS011;21053;50.848;4.652;2022-12-16T05:15:48;100.70;;;35.83;;
34836;SDS011;21053;50.848;4.652;2022-12-16T05:18:33;112.07;;;38.35;;
34836;SDS011;21053;50.848;4.652;2022-12-16T05:21:18;99.55;;;37.08;;
34836;SDS011;21053;50.848;4.652;2022-12-16T05:24:05;113.10;;;36.60;;
34836;SDS011;21053;50.848;4.652;2022-12-16T05:26:50;95.88;;;35.30;;
34836;SDS011;21053;50.848;4.652;2022-12-16T05:29:37;98.03;;;37.13;;
34836;SDS011;21053;50.848;4.652;2022-12-16T05:32:49;93.10;;;36.20;;
34836;SDS011;21053;50.848;4.652;2022-12-16T05:35:35;97.40;;;35.42;;
34836;SDS011;21053;50.848;4.652;2022-12-16T05:38:22;99.28;;;36.15;;
34836;SDS011;21053;50.848;4.652;2022-12-16T05:41:12;109.65;;;37.45;;
34836;SDS011;21053;50.848;4.652;2022-12-16T05:43:56;111.20;;;38.10;;
34836;SDS011;21053;50.848;4.652;2022-12-16T05:46:42;110.63;;;37.08;;
34836;SDS011;21053;50.848;4.652;2022-12-16T05:49:26;119.55;;;37.58;;
34836;SDS011;21053;50.848;4.652;2022-12-16T05:54:57;100.72;;;35.30;;
34836;SDS011;21053;50.848;4.652;2022-12-16T05:57:42;102.65;;;34.67;;
34836;SDS011;21053;50.848;4.652;2022-12-16T06:00:27;109.50;;;35.25;;
34836;SDS011;21053;50.848;4.652;2022-12-16T06:06:01;106.85;;;34.83;;
34836;SDS011;21053;50.848;4.652;2022-12-16T06:08:45;108.22;;;34.20;;
34836;SDS011;21053;50.848;4.652;2022-12-16T06:11:32;112.80;;;34.90;;
34836;SDS011;21053;50.848;4.652;2022-12-16T06:14:21;107.70;;;33.95;;
34836;SDS011;21053;50.848;4.652;2022-12-16T06:17:05;97.38;;;33.05;;
34836;SDS011;21053;50.848;4.652;2022-12-16T06:19:49;107.78;;;32.95;;
34836;SDS011;21053;50.848;4.652;2022-12-16T06:22:33;91.85;;;32.85;;
34836;SDS011;21053;50.848;4.652;2022-12-16T06:25:20;94.57;;;32.42;;
34836;SDS011;21053;50.848;4.652;2022-12-16T06:28:04;90.13;;;31.42;;
34836;SDS011;21053;50.848;4.652;2022-12-16T06:30:48;87.18;;;32.05;;
34836;SDS011;21053;50.848;4.652;2022-12-16T06:33:35;75.30;;;29.25;;
34836;SDS011;21053;50.848;4.652;2022-12-16T06:36:23;89.20;;;31.17;;
34836;SDS011;21053;50.848;4.652;2022-12-16T06:39:09;91.53;;;31.33;;
34836;SDS011;21053;50.848;4.652;2022-12-16T06:41:54;93.13;;;30.85;;
34836;SDS011;21053;50.848;4.652;2022-12-16T06:44:40;97.38;;;32.53;;
34836;SDS011;21053;50.848;4.652;2022-12-16T06:47:30;90.80;;;32.15;;
34836;SDS011;21053;50.848;4.652;2022-12-16T06:50:17;89.38;;;32.47;;
34836;SDS011;21053;50.848;4.652;2022-12-16T06:53:05;95.75;;;31.80;;
34836;SDS011;21053;50.848;4.652;2022-12-16T06:58:37;94.50;;;33.33;;
34836;SDS011;21053;50.848;4.652;2022-12-16T07:01:24;99.53;;;33.05;;
34836;SDS011;21053;50.848;4.652;2022-12-16T07:04:11;104.65;;;34.80;;
34836;SDS011;21053;50.848;4.652;2022-12-16T07:06:58;107.65;;;34.20;;
34836;SDS011;21053;50.848;4.652;2022-12-16T07:09:57;83.72;;;32.13;;
34836;SDS011;21053;50.848;4.652;2022-12-16T07:12:41;93.30;;;31.80;;
34836;SDS011;21053;50.848;4.652;2022-12-16T07:15:29;91.90;;;32.47;;
34836;SDS011;21053;50.848;4.652;2022-12-16T07:18:19;84.22;;;31.95;;
34836;SDS011;21053;50.848;4.652;2022-12-16T07:21:25;94.32;;;31.83;;
34836;SDS011;21053;50.848;4.652;2022-12-16T07:24:11;86.25;;;30.30;;
34836;SDS011;21053;50.848;4.652;2022-12-16T07:27:01;76.68;;;29.13;;
34836;SDS011;21053;50.848;4.652;2022-12-16T07:29:48;81.80;;;30.10;;
34836;SDS011;21053;50.848;4.652;2022-12-16T07:32:33;85.32;;;30.08;;
34836;SDS011;21053;50.848;4.652;2022-12-16T07:35:19;87.07;;;29.83;;
34836;SDS011;21053;50.848;4.652;2022-12-16T07:38:03;80.13;;;29.58;;
34836;SDS011;21053;50.848;4.652;2022-12-16T07:40:48;77.15;;;28.88;;
34836;SDS011;21053;50.848;4.652;2022-12-16T07:43:35;72.72;;;29.00;;
34836;SDS011;21053;50.848;4.652;2022-12-16T07:49:03;76.93;;;29.17;;
34836;SDS011;21053;50.848;4.652;2022-12-16T07:54:34;73.60;;;28.42;;
34836;SDS011;21053;50.848;4.652;2022-12-16T07:57:19;85.82;;;30.88;;
34836;SDS011;21053;50.848;4.652;2022-12-16T08:00:04;79.53;;;31.98;;
34836;SDS011;21053;50.848;4.652;2022-12-16T08:02:54;70.60;;;29.48;;
34836;SDS011;21053;50.848;4.652;2022-12-16T08:05:42;80.72;;;30.95;;
34836;SDS011;21053;50.848;4.652;2022-12-16T08:11:14;84.15;;;31.50;;
34836;SDS011;21053;50.848;4.652;2022-12-16T08:14:01;82.22;;;31.13;;
34836;SDS011;21053;50.848;4.652;2022-12-16T08:16:57;90.55;;;31.27;;
34836;SDS011;21053;50.848;4.652;2022-12-16T08:22:31;98.47;;;32.45;;
34836;SDS011;21053;50.848;4.652;2022-12-16T08:25:15;83.70;;;31.67;;
34836;SDS011;21053;50.848;4.652;2022-12-16T08:28:00;74.68;;;30.52;;
34836;SDS011;21053;50.848;4.652;2022-12-16T08:30:50;83.50;;;31.92;;
34836;SDS011;21053;50.848;4.652;2022-12-16T08:33:38;74.68;;;29.58;;
34836;SDS011;21053;50.848;4.652;2022-12-16T08:36:22;84.72;;;30.92;;
34836;SDS011;21053;50.848;4.652;2022-12-16T08:39:20;89.85;;;31.02;;
34836;SDS011;21053;50.848;4.652;2022-12-16T08:42:10;71.82;;;29.83;;
34836;SDS011;21053;50.848;4.652;2022-12-16T08:50:32;71.85;;;28.95;;
34836;SDS011;21053;50.848;4.652;2022-12-16T08:53:17;71.65;;;29.40;;
34836;SDS011;21053;50.848;4.652;2022-12-16T08:56:01;77.80;;;28.85;;
34836;SDS011;21053;50.848;4.652;2022-12-16T08:58:45;83.03;;;29.70;;
34836;SDS011;21053;50.848;4.652;2022-12-16T09:01:29;85.30;;;30.60;;
34836;SDS011;21053;50.848;4.652;2022-12-16T09:04:13;83.10;;;29.45;;
34836;SDS011;21053;50.848;4.652;2022-12-16T09:06:58;73.30;;;29.67;;
34836;SDS011;21053;50.848;4.652;2022-12-16T09:11:09;81.80;;;30.27;;
34836;SDS011;21053;50.848;4.652;2022-12-16T09:17:16;84.00;;;30.70;;
34836;SDS011;21053;50.848;4.652;2022-12-16T09:20:01;82.78;;;30.35;;
34836;SDS011;21053;50.848;4.652;2022-12-16T09:22:46;77.40;;;30.88;;
34836;SDS011;21053;50.848;4.652;2022-12-16T09:25:33;71.40;;;29.48;;
34836;SDS011;21053;50.848;4.652;2022-12-16T09:28:17;76.10;;;30.05;;
34836;SDS011;21053;50.848;4.652;2022-12-16T09:31:01;71.75;;;29.73;;
34836;SDS011;21053;50.848;4.652;2022-12-16T09:38:16;83.18;;;30.23;;
34836;SDS011;21053;50.848;4.652;2022-12-16T09:44:36;76.47;;;28.85;;
34836;SDS011;21053;50.848;4.652;2022-12-16T09:48:03;77.22;;;29.13;;
34836;SDS011;21053;50.848;4.652;2022-12-16T09:53:45;70.47;;;28.73;;
34836;SDS011;21053;50.848;4.652;2022-12-16T09:56:31;64.47;;;27.13;;
34836;SDS011;21053;50.848;4.652;2022-12-16T09:59:19;76.93;;;28.73;;
34836;SDS011;21053;50.848;4.652;2022-12-16T10:02:16;69.50;;;27.38;;
34836;SDS011;21053;50.848;4.652;2022-12-16T10:05:05;72.35;;;27.70;;
34836;SDS011;21053;50.848;4.652;2022-12-16T10:11:18;63.63;;;25.67;;
34836;SDS011;21053;50.848;4.652;2022-12-16T10:17:46;61.53;;;25.73;;
34836;SDS011;21053;50.848;4.652;2022-12-16T10:20:50;61.40;;;26.30;;
34836;SDS011;21053;50.848;4.652;2022-12-16T10:27:00;72.28;;;25.60;;
34836;SDS011;21053;50.848;4.652;2022-12-16T10:32:48;64.32;;;25.40;;
34836;SDS011;21053;50.848;4.652;2022-12-16T10:38:37;66.10;;;24.63;;
34836;SDS011;21053;50.848;4.652;2022-12-16T10:41:40;57.97;;;24.58;;
34836;SDS011;21053;50.848;4.652;2022-12-16T10:47:46;56.90;;;23.77;;
34836;SDS011;21053;50.848;4.652;2022-12-16T10:53:18;58.97;;;22.55;;
34836;SDS011;21053;50.848;4.652;2022-12-16T10:56:17;55.10;;;22.92;;
34836;SDS011;21053;50.848;4.652;2022-12-16T10:59:36;63.08;;;23.63;;
34836;SDS011;21053;50.848;4.652;2022-12-16T11:02:25;56.65;;;23.58;;
34836;SDS011;21053;50.848;4.652;2022-12-16T11:11:14;60.75;;;22.80;;
34836;SDS011;21053;50.848;4.652;2022-12-16T11:17:23;43.13;;;17.15;;
34836;SDS011;21053;50.848;4.652;2022-12-16T11:20:17;47.53;;;22.38;;
34836;SDS011;21053;50.848;4.652;2022-12-16T11:23:08;47.92;;;20.92;;
34836;SDS011;21053;50.848;4.652;2022-12-16T11:32:16;45.55;;;20.67;;
34836;SDS011;21053;50.848;4.652;2022-12-16T11:35:16;46.47;;;21.38;;
34836;SDS011;21053;50.848;4.652;2022-12-16T11:38:03;47.35;;;20.35;;
34836;SDS011;21053;50.848;4.652;2022-12-16T11:41:00;42.22;;;19.58;;
34836;SDS011;21053;50.848;4.652;2022-12-16T11:43:48;46.58;;;20.00;;
34836;SDS011;21053;50.848;4.652;2022-12-16T11:46:38;38.03;;;18.42;;
34836;SDS011;21053;50.848;4.652;2022-12-16T11:49:26;34.83;;;18.00;;
34836;SDS011;21053;50.848;4.652;2022-12-16T11:52:41;40.17;;;18.60;;
34836;SDS011;21053;50.848;4.652;2022-12-16T11:55:33;34.10;;;17.42;;
34836;SDS011;21053;50.848;4.652;2022-12-16T11:58:26;43.65;;;19.00;;
34836;SDS011;21053;50.848;4.652;2022-12-16T12:01:33;36.83;;;17.48;;
34836;SDS011;21053;50.848;4.652;2022-12-16T12:04:42;34.58;;;16.50;;
34836;SDS011;21053;50.848;4.652;2022-12-16T12:14:03;37.13;;;16.48;;
34836;SDS011;21053;50.848;4.652;2022-12-16T12:20:46;35.58;;;17.23;;
34836;SDS011;21053;50.848;4.652;2022-12-16T12:26:43;30.20;;;16.25;;
34836;SDS011;21053;50.848;4.652;2022-12-16T12:45:19;35.28;;;18.35;;
34836;SDS011;21053;50.848;4.652;2022-12-16T12:54:48;36.88;;;18.33;;
34836;SDS011;21053;50.848;4.652;2022-12-16T12:58:03;35.00;;;17.60;;
34836;SDS011;21053;50.848;4.652;2022-12-16T13:00:50;34.05;;;19.63;;
34836;SDS011;21053;50.848;4.652;2022-12-16T13:16:10;32.10;;;16.45;;
34836;SDS011;21053;50.848;4.652;2022-12-16T13:25:32;28.95;;;14.88;;
34836;SDS011;21053;50.848;4.652;2022-12-16T13:28:24;32.67;;;16.08;;
34836;SDS011;21053;50.848;4.652;2022-12-16T13:31:20;31.85;;;15.82;;
34836;SDS011;21053;50.848;4.652;2022-12-16T13:36:58;28.15;;;14.90;;
34836;SDS011;21053;50.848;4.652;2022-12-16T13:45:39;27.50;;;15.57;;
34836;SDS011;21053;50.848;4.652;2022-12-16T13:57:48;36.63;;;18.40;;
34836;SDS011;21053;50.848;4.652;2022-12-16T14:00:40;42.22;;;16.95;;
34836;SDS011;21053;50.848;4.652;2022-12-16T14:06:21;38.90;;;17.58;;
34836;SDS011;21053;50.848;4.652;2022-12-16T14:09:25;43.90;;;17.70;;
34836;SDS011;21053;50.848;4.652;2022-12-16T14:13:04;33.70;;;16.27;;
34836;SDS011;21053;50.848;4.652;2022-12-16T14:25:36;36.78;;;16.13;;
34836;SDS011;21053;50.848;4.652;2022-12-16T14:28:35;36.03;;;17.33;;
34836;SDS011;21053;50.848;4.652;2022-12-16T14:34:12;43.10;;;16.50;;
34836;SDS011;21053;50.848;4.652;2022-12-16T14:37:06;39.95;;;16.00;;
34836;SDS011;21053;50.848;4.652;2022-12-16T14:40:03;37.65;;;15.18;;
34836;SDS011;21053;50.848;4.652;2022-12-16T14:43:01;37.65;;;15.25;;
34836;SDS011;21053;50.848;4.652;2022-12-16T14:45:47;35.72;;;15.75;;
34836;SDS011;21053;50.848;4.652;2022-12-16T14:51:29;34.65;;;14.38;;
34836;SDS011;21053;50.848;4.652;2022-12-16T14:54:34;41.13;;;15.90;;
34836;SDS011;21053;50.848;4.652;2022-12-16T14:57:24;34.83;;;15.13;;
34836;SDS011;21053;50.848;4.652;2022-12-16T15:00:14;37.03;;;15.52;;
34836;SDS011;21053;50.848;4.652;2022-12-16T15:03:31;42.15;;;15.48;;
34836;SDS011;21053;50.848;4.652;2022-12-16T15:08:47;34.83;;;15.10;;
34836;SDS011;21053;50.848;4.652;2022-12-16T15:11:34;38.85;;;14.05;;
34836;SDS011;21053;50.848;4.652;2022-12-16T15:14:24;34.72;;;14.45;;
34836;SDS011;21053;50.848;4.652;2022-12-16T15:17:24;34.30;;;14.75;;
34836;SDS011;21053;50.848;4.652;2022-12-16T15:20:16;33.78;;;14.77;;
34836;SDS011;21053;50.848;4.652;2022-12-16T15:23:18;33.25;;;14.90;;
34836;SDS011;21053;50.848;4.652;2022-12-16T15:26:04;34.47;;;14.55;;
34836;SDS011;21053;50.848;4.652;2022-12-16T15:28:49;36.10;;;15.25;;
34836;SDS011;21053;50.848;4.652;2022-12-16T15:31:36;37.67;;;14.95;;
34836;SDS011;21053;50.848;4.652;2022-12-16T15:34:36;37.88;;;14.20;;
34836;SDS011;21053;50.848;4.652;2022-12-16T15:37:30;34.45;;;14.15;;
34836;SDS011;21053;50.848;4.652;2022-12-16T15:40:27;33.50;;;13.02;;
34836;SDS011;21053;50.848;4.652;2022-12-16T15:45:30;35.05;;;14.07;;
34836;SDS011;21053;50.848;4.652;2022-12-16T15:48:30;29.38;;;13.68;;
34836;SDS011;21053;50.848;4.652;2022-12-16T15:51:40;40.88;;;14.35;;
34836;SDS011;21053;50.848;4.652;2022-12-16T15:54:50;40.97;;;15.60;;
34836;SDS011;21053;50.848;4.652;2022-12-16T15:59:21;32.15;;;14.20;;
34836;SDS011;21053;50.848;4.652;2022-12-16T16:02:28;41.47;;;14.57;;
34836;SDS011;21053;50.848;4.652;2022-12-16T16:05:17;37.83;;;14.65;;
34836;SDS011;21053;50.848;4.652;2022-12-16T16:08:04;33.15;;;13.77;;
34836;SDS011;21053;50.848;4.652;2022-12-16T16:10:48;33.53;;;14.23;;
34836;SDS011;21053;50.848;4.652;2022-12-16T16:13:33;38.20;;;15.15;;
34836;SDS011;21053;50.848;4.652;2022-12-16T16:16:18;35.25;;;15.20;;
34836;SDS011;21053;50.848;4.652;2022-12-16T16:19:03;38.92;;;15.75;;
34836;SDS011;21053;50.848;4.652;2022-12-16T16:21:52;33.67;;;14.55;;
34836;SDS011;21053;50.848;4.652;2022-12-16T16:24:36;30.00;;;13.65;;
34836;SDS011;21053;50.848;4.652;2022-12-16T16:27:20;34.17;;;14.35;;
34836;SDS011;21053;50.848;4.652;2022-12-16T16:30:08;40.28;;;14.88;;
34836;SDS011;21053;50.848;4.652;2022-12-16T16:32:53;35.17;;;14.50;;
34836;SDS011;21053;50.848;4.652;2022-12-16T16:35:39;37.65;;;14.85;;
34836;SDS011;21053;50.848;4.652;2022-12-16T16:38:37;36.17;;;14.55;;
34836;SDS011;21053;50.848;4.652;2022-12-16T16:41:21;34.20;;;15.35;;
34836;SDS011;21053;50.848;4.652;2022-12-16T16:44:08;42.47;;;15.52;;
34836;SDS011;21053;50.848;4.652;2022-12-16T16:49:42;40.13;;;16.02;;
34836;SDS011;21053;50.848;4.652;2022-12-16T16:52:30;31.88;;;14.35;;
34836;SDS011;21053;50.848;4.652;2022-12-16T16:55:17;30.33;;;14.18;;
34836;SDS011;21053;50.848;4.652;2022-12-16T16:58:15;40.92;;;16.73;;
34836;SDS011;21053;50.848;4.652;2022-12-16T17:01:12;45.08;;;16.73;;
34836;SDS011;21053;50.848;4.652;2022-12-16T17:03:58;47.72;;;19.77;;
34836;SDS011;21053;50.848;4.652;2022-12-16T17:06:42;48.58;;;18.60;;
34836;SDS011;21053;50.848;4.652;2022-12-16T17:09:36;44.92;;;18.88;;
34836;SDS011;21053;50.848;4.652;2022-12-16T17:12:24;43.10;;;17.20;;
34836;SDS011;21053;50.848;4.652;2022-12-16T17:18:32;40.58;;;16.23;;
34836;SDS011;21053;50.848;4.652;2022-12-16T17:21:21;41.15;;;16.75;;
34836;SDS011;21053;50.848;4.652;2022-12-16T17:24:08;47.80;;;17.02;;
34836;SDS011;21053;50.848;4.652;2022-12-16T17:26:55;47.70;;;18.55;;
34836;SDS011;21053;50.848;4.652;2022-12-16T17:29:39;53.92;;;19.45;;
34836;SDS011;21053;50.848;4.652;2022-12-16T17:34:58;43.10;;;18.67;;
34836;SDS011;21053;50.848;4.652;2022-12-16T17:40:30;42.47;;;17.95;;
34836;SDS011;21053;50.848;4.652;2022-12-16T17:43:14;42.67;;;18.60;;
34836;SDS011;21053;50.848;4.652;2022-12-16T17:46:00;49.00;;;18.92;;
34836;SDS011;21053;50.848;4.652;2022-12-16T17:48:53;49.72;;;18.67;;
34836;SDS011;21053;50.848;4.652;2022-12-16T17:51:38;58.50;;;19.63;;
34836;SDS011;21053;50.848;4.652;2022-12-16T17:54:25;55.05;;;21.33;;
34836;SDS011;21053;50.848;4.652;2022-12-16T17:57:09;53.13;;;20.48;;
34836;SDS011;21053;50.848;4.652;2022-12-16T17:59:55;56.22;;;19.55;;
34836;SDS011;21053;50.848;4.652;2022-12-16T18:02:39;45.95;;;18.65;;
34836;SDS011;21053;50.848;4.652;2022-12-16T18:05:24;52.60;;;18.85;;
34836;SDS011;21053;50.848;4.652;2022-12-16T18:08:22;46.63;;;18.17;;
34836;SDS011;21053;50.848;4.652;2022-12-16T18:11:10;42.60;;;16.92;;
34836;SDS011;21053;50.848;4.652;2022-12-16T18:13:57;44.13;;;17.13;;
34836;SDS011;21053;50.848;4.652;2022-12-16T18:22:54;41.92;;;17.40;;
34836;SDS011;21053;50.848;4.652;2022-12-16T18:25:40;44.95;;;18.25;;
34836;SDS011;21053;50.848;4.652;2022-12-16T18:28:25;44.67;;;18.30;;
34836;SDS011;21053;50.848;4.652;2022-12-16T18:33:58;53.10;;;19.65;;
34836;SDS011;21053;50.848;4.652;2022-12-16T18:42:18;100.65;;;38.15;;
34836;SDS011;21053;50.848;4.652;2022-12-16T18:45:02;105.47;;;40.25;;
34836;SDS011;21053;50.848;4.652;2022-12-16T18:50:34;85.82;;;31.42;;
34836;SDS011;21053;50.848;4.652;2022-12-16T18:53:18;66.03;;;26.77;;
34836;SDS011;21053;50.848;4.652;2022-12-16T18:56:20;77.80;;;25.63;;
34836;SDS011;21053;50.848;4.652;2022-12-16T18:59:04;79.23;;;25.87;;
34836;SDS011;21053;50.848;4.652;2022-12-16T19:01:49;62.00;;;23.88;;
34836;SDS011;21053;50.848;4.652;2022-12-16T19:04:34;61.85;;;24.02;;
34836;SDS011;21053;50.848;4.652;2022-12-16T19:07:19;55.05;;;21.73;;
34836;SDS011;21053;50.848;4.652;2022-12-16T19:10:03;61.95;;;22.05;;
34836;SDS011;21053;50.848;4.652;2022-12-16T19:12:53;72.20;;;24.38;;
34836;SDS011;21053;50.848;4.652;2022-12-16T19:15:40;65.20;;;25.42;;
34836;SDS011;21053;50.848;4.652;2022-12-16T19:18:26;67.32;;;24.60;;
34836;SDS011;21053;50.848;4.652;2022-12-16T19:21:13;67.47;;;24.85;;
34836;SDS011;21053;50.848;4.652;2022-12-16T19:23:57;63.63;;;24.73;;
34836;SDS011;21053;50.848;4.652;2022-12-16T19:26:42;62.70;;;24.98;;
34836;SDS011;21053;50.848;4.652;2022-12-16T19:32:17;61.45;;;23.70;;
34836;SDS011;21053;50.848;4.652;2022-12-16T19:35:01;66.70;;;25.10;;
34836;SDS011;21053;50.848;4.652;2022-12-16T19:37:46;54.67;;;21.80;;
34836;SDS011;21053;50.848;4.652;2022-12-16T19:40:32;59.47;;;22.73;;
34836;SDS011;21053;50.848;4.652;2022-12-16T19:46:51;51.35;;;21.20;;
34836;SDS011;21053;50.848;4.652;2022-12-16T19:49:39;58.97;;;21.23;;
34836;SDS011;21053;50.848;4.652;2022-12-16T19:52:26;55.28;;;22.55;;
34836;SDS011;21053;50.848;4.652;2022-12-16T19:55:11;49.88;;;21.38;;
34836;SDS011;21053;50.848;4.652;2022-12-16T19:57:58;56.17;;;22.27;;
34836;SDS011;21053;50.848;4.652;2022-12-16T20:03:30;49.42;;;21.38;;
34836;SDS011;21053;50.848;4.652;2022-12-16T20:06:15;56.33;;;20.35;;
34836;SDS011;21053;50.848;4.652;2022-12-16T20:11:50;60.50;;;23.20;;
34836;SDS011;21053;50.848;4.652;2022-12-16T20:14:34;61.45;;;23.13;;
34836;SDS011;21053;50.848;4.652;2022-12-16T20:17:21;67.13;;;25.38;;
34836;SDS011;21053;50.848;4.652;2022-12-16T20:20:09;60.78;;;23.50;;
34836;SDS011;21053;50.848;4.652;2022-12-16T20:22:56;59.25;;;23.17;;
34836;SDS011;21053;50.848;4.652;2022-12-16T20:25:40;57.92;;;22.38;;
34836;SDS011;21053;50.848;4.652;2022-12-16T20:28:26;63.88;;;23.77;;
34836;SDS011;21053;50.848;4.652;2022-12-16T20:33:58;54.40;;;21.50;;
34836;SDS011;21053;50.848;4.652;2022-12-16T20:36:43;56.30;;;22.10;;
34836;SDS011;21053;50.848;4.652;2022-12-16T20:39:28;57.08;;;23.25;;